createdAt,value
2018-10-21T00:00:26.649Z,10.33
2018-10-21T00:02:56.175Z,12.57
2018-10-21T00:05:25.844Z,12.13
2018-10-21T00:07:55.428Z,14.30
2018-10-21T00:10:24.960Z,14.87
2018-10-21T00:12:54.466Z,12.43
2018-10-21T00:15:23.783Z,16.07
2018-10-21T00:17:53.312Z,14.47
2018-10-21T00:20:22.865Z,13.40
2018-10-21T00:22:52.392Z,13.97
2018-10-21T00:25:21.917Z,13.63
2018-10-21T00:27:51.414Z,13.37
2018-10-21T00:30:20.948Z,17.77
2018-10-21T00:32:51.568Z,12.10
2018-10-21T00:35:21.136Z,13.30
2018-10-21T00:37:50.627Z,11.00
2018-10-21T00:40:20.108Z,13.00
2018-10-21T00:42:49.646Z,11.87
2018-10-21T00:45:19.154Z,13.13
2018-10-21T00:47:48.648Z,8.57
2018-10-21T00:50:18.180Z,15.47
2018-10-21T00:52:47.675Z,14.67
2018-10-21T00:55:17.194Z,14.57
2018-10-21T00:57:46.712Z,11.70
2018-10-21T01:00:16.218Z,14.20
2018-10-21T01:02:45.792Z,14.90
2018-10-21T01:05:15.288Z,12.53
2018-10-21T01:07:44.861Z,13.53
2018-10-21T01:10:14.382Z,12.77
2018-10-21T01:12:43.937Z,14.17
2018-10-21T01:15:13.764Z,17.83
2018-10-21T01:17:43.432Z,13.63
2018-10-21T01:20:13.204Z,14.50
2018-10-21T01:22:43.057Z,12.57
2018-10-21T01:25:12.600Z,16.43
2018-10-21T01:27:42.259Z,16.63
2018-10-21T01:30:13.117Z,15.37
2018-10-21T01:32:42.624Z,16.90
2018-10-21T01:35:12.144Z,18.80
2018-10-21T01:37:41.743Z,17.47
2018-10-21T01:40:35.772Z,21.77
2018-10-21T01:43:06.097Z,18.37
2018-10-21T01:45:35.634Z,21.33
2018-10-21T01:48:06.520Z,19.27
2018-10-21T01:50:36.037Z,17.97
2018-10-21T01:53:06.743Z,18.53
2018-10-21T01:55:36.346Z,19.40
2018-10-21T01:58:06.228Z,17.10
2018-10-21T02:00:36.029Z,17.53
2018-10-21T02:03:06.183Z,20.43
2018-10-21T02:05:36.273Z,17.43
2018-10-21T02:08:06.113Z,16.90
2018-10-21T02:10:35.629Z,17.20
2018-10-21T02:13:05.163Z,19.30
2018-10-21T02:15:34.909Z,19.97
2018-10-21T02:18:04.777Z,16.30
2018-10-21T02:20:34.286Z,17.13
2018-10-21T02:23:03.884Z,19.60
2018-10-21T02:25:33.028Z,23.50
2018-10-21T02:28:02.505Z,16.23
2018-10-21T02:30:32.397Z,16.83
2018-10-21T02:33:02.208Z,18.23
2018-10-21T02:35:31.929Z,16.93
2018-10-21T02:38:01.449Z,18.10
2018-10-21T02:41:40.497Z,18.93
2018-10-21T02:44:13.217Z,15.90
2018-10-21T02:46:43.372Z,19.27
2018-10-21T02:49:13.549Z,21.40
2018-10-21T02:51:43.101Z,21.50
2018-10-21T02:54:12.619Z,15.97
2018-10-21T02:56:42.241Z,23.47
2018-10-21T02:59:11.772Z,18.40
2018-10-21T03:01:41.268Z,19.63
2018-10-21T03:04:10.764Z,17.27
2018-10-21T03:06:40.333Z,21.00
2018-10-21T03:09:09.869Z,14.87
2018-10-21T03:11:39.584Z,18.20
2018-10-21T03:14:09.145Z,14.73
2018-10-21T03:16:38.665Z,17.23
2018-10-21T03:19:08.188Z,17.70
2018-10-21T03:21:37.753Z,15.67
2018-10-21T03:24:07.256Z,17.43
2018-10-21T03:26:36.773Z,17.07
2018-10-21T03:29:06.825Z,18.83
2018-10-21T03:31:36.373Z,16.40
2018-10-21T03:34:06.030Z,16.70
2018-10-21T03:36:35.388Z,16.47
2018-10-21T03:39:06.108Z,15.00
2018-10-21T03:41:35.424Z,15.90
2018-10-21T03:44:05.048Z,15.07
2018-10-21T03:46:34.608Z,12.90
2018-10-21T03:49:04.120Z,14.60
2018-10-21T03:51:33.652Z,17.70
2018-10-21T03:54:03.212Z,16.07
2018-10-21T03:56:32.764Z,15.93
2018-10-21T03:59:02.302Z,18.77
2018-10-21T04:01:31.848Z,14.97
2018-10-21T04:04:01.377Z,19.53
2018-10-21T04:06:31.089Z,17.83
2018-10-21T04:09:00.608Z,14.03
2018-10-21T04:11:30.100Z,19.67
2018-10-21T04:13:59.278Z,18.87
2018-10-21T04:16:28.685Z,16.67
2018-10-21T04:18:58.221Z,17.63
2018-10-21T04:21:27.409Z,23.23
2018-10-21T04:23:56.820Z,19.10
2018-10-21T04:26:26.352Z,21.87
2018-10-21T04:28:55.885Z,18.53
2018-10-21T04:31:25.378Z,16.07
2018-10-21T04:33:54.936Z,14.77
2018-10-21T04:36:27.612Z,13.83
2018-10-21T04:40:36.408Z,18.97
2018-10-21T04:43:05.948Z,18.57
2018-10-21T04:45:35.537Z,19.33
2018-10-21T04:48:05.164Z,18.40
2018-10-21T04:50:34.714Z,17.07
2018-10-21T04:53:04.221Z,17.87
2018-10-21T04:55:33.716Z,21.10
2018-10-21T04:58:03.258Z,17.77
2018-10-21T05:00:32.688Z,20.63
2018-10-21T05:03:02.113Z,19.93
2018-10-21T05:05:31.692Z,22.30
2018-10-21T05:08:01.196Z,19.67
2018-10-21T05:10:33.298Z,20.80
2018-10-21T05:13:03.236Z,19.20
2018-10-21T05:15:34.032Z,17.70
2018-10-21T05:18:03.761Z,17.53
2018-10-21T05:20:33.259Z,19.00
2018-10-21T05:23:02.836Z,18.60
2018-10-21T05:25:32.396Z,21.13
2018-10-21T05:28:01.927Z,23.13
2018-10-21T05:30:31.656Z,21.93
2018-10-21T05:33:01.164Z,20.43
2018-10-21T05:35:30.673Z,22.87
2018-10-21T05:38:00.356Z,20.57
2018-10-21T05:40:29.924Z,19.53
2018-10-21T05:42:59.641Z,19.77
2018-10-21T05:45:29.205Z,19.47
2018-10-21T05:47:58.818Z,21.03
2018-10-21T05:50:27.971Z,18.60
2018-10-21T05:52:57.444Z,20.83
2018-10-21T05:55:26.948Z,19.67
2018-10-21T05:57:56.529Z,17.90
2018-10-21T06:00:26.277Z,19.80
2018-10-21T06:02:55.575Z,18.43
2018-10-21T06:05:34.680Z,19.70
2018-10-21T06:08:03.844Z,18.43
2018-10-21T06:10:33.272Z,20.70
2018-10-21T06:13:02.833Z,21.90
2018-10-21T06:15:32.337Z,18.63
2018-10-21T06:18:02.437Z,19.70
2018-10-21T06:20:48.416Z,18.30
2018-10-21T06:23:17.928Z,22.57
2018-10-21T06:25:47.431Z,18.47
2018-10-21T06:28:16.969Z,25.13
2018-10-21T06:30:46.465Z,23.77
2018-10-21T06:33:16.020Z,21.43
2018-10-21T06:35:45.343Z,19.03
2018-10-21T06:38:14.756Z,14.93
2018-10-21T06:40:44.284Z,21.53
2018-10-21T06:43:13.853Z,18.10
2018-10-21T06:45:43.480Z,17.30
2018-10-21T06:48:13.209Z,19.70
2018-10-21T06:50:42.448Z,14.57
2018-10-21T06:53:11.948Z,17.40
2018-10-21T06:55:41.470Z,16.67
2018-10-21T06:58:10.970Z,18.10
2018-10-21T07:00:40.469Z,15.63
2018-10-21T07:03:10.024Z,20.77
2018-10-21T07:06:15.193Z,15.50
2018-10-21T07:08:45.360Z,15.50
2018-10-21T07:11:15.040Z,16.97
2018-10-21T07:13:44.223Z,17.00
2018-10-21T07:16:14.026Z,19.33
2018-10-21T07:18:44.585Z,20.23
2018-10-21T07:21:14.184Z,17.47
2018-10-21T07:23:43.965Z,19.07
2018-10-21T07:26:13.492Z,16.63
2018-10-21T07:28:43.026Z,18.77
2018-10-21T07:31:12.516Z,14.37
2018-10-21T07:33:42.053Z,16.10
2018-10-21T07:36:11.644Z,16.13
2018-10-21T07:38:41.368Z,17.20
2018-10-21T07:41:10.884Z,19.07
2018-10-21T07:43:40.477Z,15.80
2018-10-21T07:46:10.062Z,16.23
2018-10-21T07:48:39.688Z,17.80
2018-10-21T07:51:09.232Z,14.10
2018-10-21T07:53:38.460Z,18.23
2018-10-21T07:56:07.964Z,19.73
2018-10-21T07:58:37.519Z,16.97
2018-10-21T08:01:07.095Z,15.67
2018-10-21T08:03:36.785Z,18.50
2018-10-21T08:06:27.976Z,18.60
2018-10-21T08:08:57.569Z,19.30
2018-10-21T08:11:27.096Z,16.70
2018-10-21T08:13:56.785Z,20.10
2018-10-21T08:16:26.276Z,15.13
2018-10-21T08:18:55.772Z,14.20
2018-10-21T08:21:26.324Z,16.20
2018-10-21T08:23:55.830Z,14.30
2018-10-21T08:26:25.348Z,14.60
2018-10-21T08:28:54.910Z,12.60
2018-10-21T08:31:24.414Z,15.50
2018-10-21T08:33:53.910Z,16.87
2018-10-21T08:36:23.448Z,20.40
2018-10-21T08:38:52.952Z,16.77
2018-10-21T08:41:22.484Z,14.73
2018-10-21T08:43:52.017Z,17.43
2018-10-21T08:46:21.594Z,30.57
2018-10-21T08:48:51.271Z,16.40
2018-10-21T08:51:20.756Z,17.53
2018-10-21T08:53:50.256Z,15.17
2018-10-21T08:56:19.841Z,16.17
2018-10-21T08:58:49.351Z,22.73
2018-10-21T09:01:18.977Z,16.50
2018-10-21T09:03:48.612Z,14.03
2018-10-21T09:06:18.100Z,16.40
2018-10-21T09:08:47.592Z,18.20
2018-10-21T09:11:17.130Z,19.67
2018-10-21T09:13:46.628Z,14.57
2018-10-21T09:16:16.226Z,16.73
2018-10-21T09:18:45.873Z,14.87
2018-10-21T09:21:15.380Z,14.10
2018-10-21T09:23:44.894Z,13.67
2018-10-21T09:26:14.620Z,15.37
2018-10-21T09:28:44.136Z,15.53
2018-10-21T09:31:13.925Z,16.13
2018-10-21T09:33:43.408Z,14.50
2018-10-21T09:36:12.921Z,12.63
2018-10-21T09:38:42.433Z,19.00
2018-10-21T09:41:11.987Z,18.43
2018-10-21T09:43:41.488Z,16.60
2018-10-21T09:46:11.033Z,21.50
2018-10-21T09:48:40.756Z,15.23
2018-10-21T09:51:10.258Z,30.13
2018-10-21T09:53:39.764Z,14.63
2018-10-21T09:56:09.365Z,23.77
2018-10-21T09:58:38.888Z,20.27
2018-10-21T10:01:13.769Z,16.97
2018-10-21T10:03:43.491Z,21.23
2018-10-21T10:06:13.221Z,26.40
2018-10-21T10:08:42.760Z,14.27
2018-10-21T10:11:12.268Z,13.50
2018-10-21T10:13:41.776Z,14.80
2018-10-21T10:16:11.424Z,12.87
2018-10-21T10:18:41.288Z,13.63
2018-10-21T10:21:10.824Z,15.70
2018-10-21T10:23:40.350Z,13.70
2018-10-21T10:26:10.044Z,12.00
2018-10-21T10:28:39.602Z,12.23
2018-10-21T10:31:09.119Z,12.20
2018-10-21T10:33:38.824Z,11.87
2018-10-21T10:36:08.433Z,13.47
2018-10-21T10:38:38.104Z,19.30
2018-10-21T10:41:07.621Z,34.63
2018-10-21T10:43:37.141Z,12.13
2018-10-21T10:46:07.065Z,14.97
2018-10-21T10:48:36.848Z,13.10
2018-10-21T10:51:07.573Z,13.00
2018-10-21T10:53:37.145Z,13.73
2018-10-21T10:56:06.692Z,11.50
2018-10-21T10:58:36.228Z,13.17
2018-10-21T11:01:05.896Z,16.67
2018-10-21T11:03:35.605Z,14.57
2018-10-21T11:06:05.535Z,19.83
2018-10-21T11:08:35.272Z,16.07
2018-10-21T11:11:04.871Z,14.07
2018-10-21T11:13:34.605Z,11.50
2018-10-21T11:16:03.822Z,13.33
2018-10-21T11:18:33.460Z,12.43
2018-10-21T11:21:03.029Z,13.37
2018-10-21T11:23:32.229Z,16.17
2018-10-21T11:26:01.951Z,12.43
2018-10-21T11:28:32.178Z,12.57
2018-10-21T11:31:01.663Z,13.30
2018-10-21T11:33:31.332Z,12.93
2018-10-21T11:36:00.915Z,12.73
2018-10-21T11:38:30.433Z,15.30
2018-10-21T11:40:59.944Z,14.00
2018-10-21T11:43:29.852Z,12.77
2018-10-21T11:45:59.457Z,11.43
2018-10-21T11:48:29.083Z,14.00
2018-10-21T11:50:58.632Z,13.20
2018-10-21T11:53:28.184Z,12.93
2018-10-21T11:55:57.356Z,10.70
2018-10-21T11:58:27.165Z,15.60
2018-10-21T12:00:57.927Z,11.47
2018-10-21T12:03:27.620Z,9.87
2018-10-21T12:05:57.191Z,13.03
2018-10-21T12:08:26.705Z,11.87
2018-10-21T12:10:56.248Z,10.43
2018-10-21T12:13:26.143Z,12.30
2018-10-21T12:15:56.939Z,11.30
2018-10-21T12:18:27.254Z,10.83
2018-10-21T12:20:57.568Z,11.67
2018-10-21T12:23:28.271Z,10.43
2018-10-21T12:25:57.788Z,11.47
2018-10-21T12:28:26.933Z,10.07
2018-10-21T12:30:56.450Z,12.63
2018-10-21T12:33:26.237Z,9.93
2018-10-21T12:35:55.738Z,9.93
2018-10-21T12:38:25.244Z,10.33
2018-10-21T12:40:54.792Z,10.63
2018-10-21T12:43:24.285Z,10.10
2018-10-21T12:45:53.417Z,10.63
2018-10-21T12:48:22.876Z,9.63
2018-10-21T12:50:52.312Z,8.77
2018-10-21T12:53:21.733Z,10.57
2018-10-21T12:55:51.336Z,10.40
2018-10-21T12:58:20.882Z,10.07
2018-10-21T13:00:50.390Z,10.97
2018-10-21T13:03:19.909Z,9.47
2018-10-21T13:05:49.636Z,9.93
2018-10-21T13:08:19.449Z,13.53
2018-10-21T13:10:49.216Z,21.27
2018-10-21T13:13:18.837Z,13.53
2018-10-21T13:15:48.489Z,13.00
2018-10-21T13:18:18.100Z,11.30
2018-10-21T13:20:47.760Z,13.53
2018-10-21T13:23:17.268Z,10.17
2018-10-21T13:25:46.812Z,8.67
2018-10-21T13:28:16.054Z,9.27
2018-10-21T13:30:45.732Z,9.90
2018-10-21T13:33:15.259Z,11.47
2018-10-21T13:35:44.792Z,10.27
2018-10-21T13:38:14.520Z,9.90
2018-10-21T13:40:44.005Z,11.47
2018-10-21T13:43:13.592Z,11.57
2018-10-21T13:45:43.265Z,13.67
2018-10-21T13:48:12.984Z,11.10
2018-10-21T13:50:42.477Z,11.37
2018-10-21T13:53:12.169Z,11.00
2018-10-21T13:55:41.804Z,12.13
2018-10-21T13:58:11.357Z,13.73
2018-10-21T14:00:40.731Z,12.73
2018-10-21T14:03:11.296Z,14.80
2018-10-21T14:05:40.820Z,11.57
2018-10-21T14:08:10.360Z,14.87
2018-10-21T14:10:39.992Z,10.77
2018-10-21T14:13:09.549Z,21.23
2018-10-21T14:15:39.240Z,11.83
2018-10-21T14:18:08.785Z,12.00
2018-10-21T14:20:38.284Z,13.10
2018-10-21T14:23:07.848Z,11.60
2018-10-21T14:25:37.428Z,12.87
2018-10-21T14:28:07.380Z,10.47
2018-10-21T14:30:36.942Z,11.63
2018-10-21T14:33:06.678Z,14.77
2018-10-21T14:35:35.996Z,14.50
2018-10-21T14:38:05.644Z,14.13
2018-10-21T14:40:35.525Z,13.90
2018-10-21T14:43:05.128Z,12.43
2018-10-21T14:45:34.399Z,12.57
2018-10-21T14:48:04.240Z,16.67
2018-10-21T14:50:33.991Z,13.63
2018-10-21T14:53:03.576Z,13.10
2018-10-21T14:55:33.099Z,20.03
2018-10-21T14:58:02.638Z,22.40
2018-10-21T15:00:32.277Z,15.43
2018-10-21T15:03:01.940Z,17.00
2018-10-21T15:05:31.625Z,15.90
2018-10-21T15:08:01.313Z,13.57
2018-10-21T15:10:30.612Z,19.80
2018-10-21T15:13:00.095Z,15.73
2018-10-21T15:15:29.649Z,16.80
2018-10-21T15:17:59.394Z,24.40
2018-10-21T15:20:29.104Z,28.63
2018-10-21T15:22:58.704Z,23.30
2018-10-21T15:25:28.324Z,28.43
2018-10-21T15:27:57.900Z,10.83
2018-10-21T15:30:27.577Z,14.83
2018-10-21T15:32:57.124Z,13.57
2018-10-21T15:35:26.653Z,11.23
2018-10-21T15:37:56.150Z,13.87
2018-10-21T15:40:25.645Z,12.23
2018-10-21T15:42:55.198Z,16.27
2018-10-21T15:45:24.701Z,13.47
2018-10-21T15:47:54.200Z,13.20
2018-10-21T15:50:26.733Z,13.93
2018-10-21T15:52:56.297Z,15.03
2018-10-21T15:55:26.023Z,12.90
2018-10-21T15:57:55.591Z,14.03
2018-10-21T16:00:25.289Z,15.67
2018-10-21T16:02:54.849Z,16.60
2018-10-21T16:05:24.356Z,14.93
2018-10-21T16:07:54.009Z,19.27
2018-10-21T16:10:23.354Z,17.23
2018-10-21T16:12:52.760Z,18.23
2018-10-21T16:15:22.300Z,22.37
2018-10-21T16:17:51.813Z,25.33
2018-10-21T16:20:21.300Z,43.90
2018-10-21T16:22:50.840Z,35.83
2018-10-21T16:25:20.439Z,108.03
2018-10-21T16:27:50.006Z,82.80
2018-10-21T16:30:19.726Z,117.87
2018-10-21T16:32:49.273Z,133.50
2018-10-21T16:35:18.616Z,641.47
2018-10-21T16:37:48.084Z,432.90
2018-10-21T16:40:17.992Z,283.40
2018-10-21T16:42:47.536Z,148.83
2018-10-21T16:45:17.099Z,80.63
2018-10-21T16:47:46.779Z,66.13
2018-10-21T16:50:16.985Z,48.60
2018-10-21T16:52:47.174Z,66.57
2018-10-21T16:55:17.368Z,42.17
2018-10-21T16:57:46.955Z,38.13
2018-10-21T17:00:17.597Z,51.33
2018-10-21T17:02:47.296Z,137.67
2018-10-21T17:05:16.576Z,311.63
2018-10-21T17:07:46.539Z,173.13
2018-10-21T17:10:16.299Z,91.47
2018-10-21T17:12:45.873Z,84.20
2018-10-21T17:15:15.028Z,112.83
2018-10-21T17:17:44.476Z,118.83
2018-10-21T17:20:15.371Z,169.43
2018-10-21T17:22:45.426Z,111.93
2018-10-21T17:25:15.500Z,89.20
2018-10-21T17:27:45.165Z,56.70
2018-10-21T17:30:16.798Z,56.87
2018-10-21T17:32:47.088Z,64.47
2018-10-21T17:35:16.236Z,71.97
2018-10-21T17:37:45.656Z,56.87
2018-10-21T17:40:15.274Z,59.63
2018-10-21T17:42:44.600Z,46.87
2018-10-21T17:45:14.891Z,36.10
2018-10-21T17:47:44.439Z,40.07
2018-10-21T17:50:15.013Z,38.60
2018-10-21T17:52:44.900Z,37.50
2018-10-21T17:55:14.667Z,42.03
2018-10-21T17:57:44.263Z,41.10
2018-10-21T18:00:14.576Z,51.27
2018-10-21T18:02:44.124Z,48.10
2018-10-21T18:05:14.698Z,70.17
2018-10-21T18:07:44.628Z,49.07
2018-10-21T18:10:14.600Z,52.30
2018-10-21T18:12:44.277Z,56.30
2018-10-21T18:15:13.887Z,54.00
2018-10-21T18:17:43.748Z,43.97
2018-10-21T18:20:14.996Z,42.57
2018-10-21T18:22:44.617Z,45.60
2018-10-21T18:25:14.228Z,48.77
2018-10-21T18:27:43.892Z,47.70
2018-10-21T18:30:13.437Z,49.47
2018-10-21T18:32:43.052Z,43.00
2018-10-21T18:35:14.936Z,52.50
2018-10-21T18:37:45.388Z,47.10
2018-10-21T18:40:15.050Z,40.77
2018-10-21T18:42:44.732Z,40.40
2018-10-21T18:45:15.306Z,52.43
2018-10-21T18:47:46.461Z,53.33
2018-10-21T18:50:17.289Z,60.60
2018-10-21T18:52:47.363Z,52.93
2018-10-21T18:55:16.882Z,58.60
2018-10-21T18:57:47.410Z,53.13
2018-10-21T19:00:18.672Z,56.90
2018-10-21T19:02:49.459Z,67.57
2018-10-21T19:05:19.457Z,74.03
2018-10-21T19:07:49.578Z,99.07
2018-10-21T19:10:19.674Z,126.33
2018-10-21T19:13:00.048Z,143.03
2018-10-21T19:15:20.728Z,121.43
2018-10-21T19:17:51.198Z,126.03
2018-10-21T19:20:21.376Z,120.67
2018-10-21T19:22:51.189Z,113.40
2018-10-21T19:25:21.112Z,101.57
2018-10-21T19:27:50.804Z,84.93
2018-10-21T19:30:21.155Z,72.17
2018-10-21T19:32:51.522Z,70.57
2018-10-21T19:35:21.568Z,71.90
2018-10-21T19:37:51.978Z,64.60
2018-10-21T19:40:22.365Z,64.90
2018-10-21T19:42:52.750Z,66.63
2018-10-21T19:45:22.968Z,67.83
2018-10-21T19:47:53.162Z,76.13
2018-10-21T19:50:24.769Z,68.17
2018-10-21T19:52:55.434Z,75.50
2018-10-21T19:55:29.446Z,62.90
2018-10-21T19:58:01.353Z,83.03
2018-10-21T20:00:32.095Z,197.23
2018-10-21T20:03:02.566Z,178.00
2018-10-21T20:05:32.261Z,208.73
2018-10-21T20:08:02.589Z,213.50
2018-10-21T20:10:33.492Z,238.47
2018-10-21T20:13:04.108Z,86.50
2018-10-21T20:15:34.328Z,78.97
2018-10-21T20:18:04.123Z,87.07
2018-10-21T20:20:34.649Z,85.17
2018-10-21T20:23:04.632Z,117.57
2018-10-21T20:25:35.408Z,120.63
2018-10-21T20:28:06.893Z,111.70
2018-10-21T20:30:38.030Z,132.10
2018-10-21T20:33:08.196Z,121.10
2018-10-21T20:35:39.149Z,90.37
2018-10-21T20:38:09.522Z,83.27
2018-10-21T20:40:39.233Z,99.70
2018-10-21T20:43:09.140Z,95.70
2018-10-21T20:45:40.823Z,108.37
2018-10-21T20:48:11.041Z,96.80
2018-10-21T20:50:41.228Z,113.27
2018-10-21T20:53:10.474Z,116.00
2018-10-21T20:55:40.034Z,123.60
2018-10-21T20:58:10.858Z,112.53
2018-10-21T21:00:40.516Z,108.20
2018-10-21T21:03:10.068Z,122.73
2018-10-21T21:05:39.569Z,131.83
2018-10-21T21:08:09.104Z,130.17
2018-10-21T21:10:38.823Z,133.50
2018-10-21T21:13:08.324Z,133.47
2018-10-21T21:15:37.849Z,156.47
2018-10-21T21:18:07.404Z,153.97
2018-10-21T21:20:36.952Z,160.67
2018-10-21T21:23:06.677Z,156.23
2018-10-21T21:25:36.816Z,125.30
2018-10-21T21:28:07.614Z,147.97
2018-10-21T21:30:37.681Z,158.10
2018-10-21T21:33:10.291Z,161.00
2018-10-21T21:35:39.800Z,148.27
2018-10-21T21:38:09.316Z,154.77
2018-10-21T21:40:38.881Z,131.30
2018-10-21T21:43:08.065Z,136.53
2018-10-21T21:45:37.472Z,129.83
2018-10-21T21:48:07.094Z,121.83
2018-10-21T21:50:36.736Z,109.23
2018-10-21T21:53:06.262Z,120.17
2018-10-21T21:55:35.788Z,124.83
2018-10-21T21:58:05.906Z,134.80
2018-10-21T22:00:35.656Z,130.17
2018-10-21T22:03:05.437Z,108.77
2018-10-21T22:05:34.944Z,123.90
2018-10-21T22:08:04.184Z,129.50
2018-10-21T22:10:33.616Z,123.80
2018-10-21T22:13:03.181Z,98.33
2018-10-21T22:15:32.717Z,98.23
2018-10-21T22:18:02.232Z,131.77
2018-10-21T22:20:31.937Z,132.93
2018-10-21T22:23:01.465Z,129.80
2018-10-21T22:25:31.005Z,120.63
2018-10-21T22:28:00.531Z,119.93
2018-10-21T22:30:30.021Z,118.13
2018-10-21T22:32:59.520Z,112.30
2018-10-21T22:35:29.019Z,112.20
2018-10-21T22:37:58.606Z,112.80
2018-10-21T22:40:28.292Z,119.57
2018-10-21T22:42:57.809Z,117.33
2018-10-21T22:45:27.359Z,119.57
2018-10-21T22:47:56.915Z,104.57
2018-10-21T22:50:26.569Z,105.43
2018-10-21T22:52:56.102Z,112.80
2018-10-21T22:55:25.607Z,105.93
2018-10-21T22:57:55.106Z,109.20
2018-10-21T23:00:24.740Z,93.63
2018-10-21T23:02:54.840Z,111.30
2018-10-21T23:05:24.368Z,110.70
2018-10-21T23:07:53.876Z,102.37
2018-10-21T23:10:23.112Z,106.47
2018-10-21T23:12:52.752Z,122.73
2018-10-21T23:15:22.265Z,120.07
2018-10-21T23:17:51.774Z,113.40
2018-10-21T23:20:21.312Z,126.03
2018-10-21T23:22:50.817Z,149.33
2018-10-21T23:25:20.322Z,133.60
2018-10-21T23:27:49.893Z,127.33
2018-10-21T23:30:19.426Z,132.73
2018-10-21T23:32:49.109Z,161.37
2018-10-21T23:35:18.639Z,152.13
2018-10-21T23:37:48.153Z,112.03
2018-10-21T23:40:17.784Z,84.47
2018-10-21T23:42:47.465Z,90.10
2018-10-21T23:45:17.004Z,112.87
2018-10-21T23:47:46.503Z,88.83
2018-10-21T23:50:16.041Z,121.27
2018-10-21T23:52:45.565Z,278.10
2018-10-21T23:55:15.068Z,346.43
2018-10-21T23:57:44.613Z,205.87
